Time,TemperatureF,DewpointF,PressureIn,WindDirection,WindDirectionDegrees,WindSpeedMPH,WindSpeedGustMPH,Humidity,HourlyPrecipIn,Conditions,Clouds,dailyrainin,SolarRadiationWatts/m^2,SoftwareType,DateUTC
2013-05-12 00:03:00,-999.0,-99.9,-100.00,ESE,106,1.0,3.0,100,0.00,,,0.34,0.000000,,2013-05-12 04:03:00,
2013-05-12 00:12:00,54.0,54.0,-100.00,ESE,106,1.0,3.0,100,0.00,,,0.34,0.000000,,2013-05-12 04:12:00,
2013-05-12 00:43:00,53.0,52.0,-100.00,East,79,1.0,6.0,97,0.00,,,0.34,0.000000,,2013-05-12 04:43:00,
2013-05-12 00:52:00,53.0,52.0,-100.00,East,79,1.0,6.0,97,0.00,,,0.34,0.000000,,2013-05-12 04:52:00,
2013-05-12 01:02:00,53.0,52.0,-100.00,East,79,1.0,6.0,97,0.00,,,0.34,0.000000,,2013-05-12 05:02:00,
2013-05-12 01:12:00,53.0,52.0,-100.00,East,79,1.0,6.0,97,0.00,,,0.34,0.000000,,2013-05-12 05:12:00,
2013-05-12 01:42:00,49.0,48.0,-100.00,SE,146,1.0,3.0,98,0.00,,,0.34,0.000000,,2013-05-12 05:42:00,
2013-05-12 01:52:00,49.0,48.0,-100.00,SE,146,1.0,3.0,98,0.00,,,0.34,0.000000,,2013-05-12 05:52:00,
2013-05-12 02:02:00,49.0,48.0,-100.00,SE,146,1.0,3.0,98,0.00,,,0.34,0.000000,,2013-05-12 06:02:00,
2013-05-12 02:11:00,49.0,48.0,-100.00,SE,146,1.0,3.0,98,0.00,,,0.34,0.000000,,2013-05-12 06:11:00,
2013-05-12 02:42:00,49.0,49.0,-100.00,SE,146,0.0,2.0,100,0.00,,,0.34,0.000000,,2013-05-12 06:42:00,
2013-05-12 02:52:00,49.0,49.0,-100.00,SE,146,0.0,2.0,100,0.00,,,0.34,0.000000,,2013-05-12 06:52:00,
2013-05-12 03:02:00,49.0,49.0,-100.00,SE,146,0.0,2.0,100,0.00,,,0.34,0.000000,,2013-05-12 07:02:00,
2013-05-12 03:11:00,49.0,49.0,-100.00,SE,146,0.0,2.0,100,0.00,,,0.34,0.000000,,2013-05-12 07:11:00,
2013-05-12 03:42:00,49.0,49.0,-100.00,East,84,1.0,2.0,100,0.00,,,0.34,0.000000,,2013-05-12 07:42:00,
2013-05-12 03:52:00,49.0,49.0,-100.00,East,84,1.0,2.0,100,0.00,,,0.34,0.000000,,2013-05-12 07:52:00,
2013-05-12 04:02:00,49.0,49.0,-100.00,East,84,1.0,2.0,100,0.00,,,0.34,0.000000,,2013-05-12 08:02:00,
2013-05-12 04:11:00,49.0,49.0,-100.00,East,84,1.0,2.0,100,0.00,,,0.34,0.000000,,2013-05-12 08:11:00,
2013-05-12 04:42:00,50.0,50.0,-100.00,ENE,66,1.0,4.0,100,0.00,,,0.34,0.000000,,2013-05-12 08:42:00,
2013-05-12 04:53:00,50.0,50.0,-100.00,ENE,66,1.0,4.0,100,0.00,,,0.34,0.000000,,2013-05-12 08:53:00,
2013-05-12 05:01:00,50.0,50.0,-100.00,ENE,66,1.0,4.0,100,0.00,,,0.34,0.000000,,2013-05-12 09:01:00,
2013-05-12 05:11:00,50.0,50.0,-100.00,ENE,66,1.0,4.0,100,0.00,,,0.34,0.000000,,2013-05-12 09:11:00,
2013-05-12 05:43:00,47.0,47.0,-100.00,SW,217,7.0,21.0,100,0.02,,,0.36,0.000000,,2013-05-12 09:43:00,
2013-05-12 05:53:00,47.0,47.0,-100.00,SW,217,7.0,21.0,100,0.02,,,0.36,0.000000,,2013-05-12 09:53:00,
2013-05-12 06:03:00,47.0,47.0,-100.00,SW,217,7.0,21.0,100,0.02,,,0.36,0.000000,,2013-05-12 10:03:00,
2013-05-12 06:12:00,47.0,47.0,-100.00,SW,217,7.0,21.0,100,0.02,,,0.36,0.000000,,2013-05-12 10:12:00,
2013-05-12 06:42:00,45.0,43.0,-100.00,SSE,162,3.0,9.0,91,0.00,,,0.34,0.000000,,2013-05-12 10:42:00,
2013-05-12 06:52:00,45.0,43.0,-100.00,SSE,162,3.0,9.0,91,0.00,,,0.34,0.000000,,2013-05-12 10:52:00,
2013-05-12 07:03:00,45.0,43.0,-100.00,SSE,162,3.0,9.0,91,0.00,,,0.34,0.000000,,2013-05-12 11:03:00,
2013-05-12 07:12:00,45.0,43.0,-100.00,SSE,162,3.0,9.0,91,0.00,,,0.34,0.000000,,2013-05-12 11:12:00,
2013-05-12 07:42:00,44.0,43.0,-100.00,ESE,110,0.0,5.0,96,0.00,,,0.28,17.000000,,2013-05-12 11:42:00,
2013-05-12 07:52:00,44.0,43.0,-100.00,ESE,110,0.0,5.0,96,0.00,,,0.28,17.000000,,2013-05-12 11:52:00,
2013-05-12 08:02:00,44.0,43.0,-100.00,ESE,110,0.0,5.0,96,0.00,,,0.28,17.000000,,2013-05-12 12:02:00,
2013-05-12 08:11:00,44.0,43.0,-100.00,ESE,110,0.0,5.0,96,0.00,,,0.28,17.000000,,2013-05-12 12:11:00,
2013-05-12 08:42:00,46.0,41.0,-100.00,South,181,4.0,8.0,84,0.00,,,0.23,70.000000,,2013-05-12 12:42:00,
2013-05-12 08:52:00,46.0,41.0,-100.00,South,181,4.0,8.0,84,0.00,,,0.23,70.000000,,2013-05-12 12:52:00,
2013-05-12 09:02:00,46.0,41.0,-100.00,South,181,4.0,8.0,84,0.00,,,0.23,70.000000,,2013-05-12 13:02:00,
2013-05-12 09:11:00,46.0,41.0,-100.00,South,181,4.0,8.0,84,0.00,,,0.23,70.000000,,2013-05-12 13:11:00,
2013-05-12 09:42:00,47.0,37.0,-100.00,West,268,5.0,10.0,67,0.00,,,0.22,139.000000,,2013-05-12 13:42:00,
2013-05-12 09:52:00,47.0,37.0,-100.00,West,268,5.0,10.0,67,0.00,,,0.22,139.000000,,2013-05-12 13:52:00,
2013-05-12 10:01:00,47.0,37.0,-100.00,West,268,5.0,10.0,67,0.00,,,0.22,139.000000,,2013-05-12 14:01:00,
2013-05-12 10:11:00,47.0,37.0,-100.00,West,268,5.0,10.0,67,0.00,,,0.22,139.000000,,2013-05-12 14:11:00,
2013-05-12 10:42:00,49.0,34.0,-100.00,West,269,6.0,12.0,55,0.00,,,0.22,320.000000,,2013-05-12 14:42:00,
2013-05-12 10:52:00,49.0,34.0,-100.00,West,269,6.0,12.0,55,0.00,,,0.22,320.000000,,2013-05-12 14:52:00,
2013-05-12 11:01:00,49.0,34.0,-100.00,West,269,6.0,12.0,55,0.00,,,0.22,320.000000,,2013-05-12 15:01:00,
2013-05-12 11:11:00,49.0,34.0,-100.00,West,269,6.0,12.0,55,0.00,,,0.22,320.000000,,2013-05-12 15:11:00,
2013-05-12 11:42:00,50.0,30.0,-100.00,WSW,254,6.0,19.0,46,0.00,,,0.22,427.000000,,2013-05-12 15:42:00,
2013-05-12 11:53:00,50.0,30.0,-100.00,WSW,254,6.0,19.0,46,0.00,,,0.22,427.000000,,2013-05-12 15:53:00,
2013-05-12 12:02:00,50.0,30.0,-100.00,WSW,254,6.0,19.0,46,0.00,,,0.22,427.000000,,2013-05-12 16:02:00,
2013-05-12 12:13:00,50.0,30.0,-100.00,WSW,254,6.0,19.0,46,0.00,,,0.22,427.000000,,2013-05-12 16:13:00,
2013-05-12 12:42:00,52.0,30.0,-100.00,SSW,196,5.0,16.0,42,0.00,,,0.22,662.000000,,2013-05-12 16:42:00,
2013-05-12 12:53:00,52.0,30.0,-100.00,SSW,196,5.0,16.0,42,0.00,,,0.22,662.000000,,2013-05-12 16:53:00,
2013-05-12 13:02:00,52.0,30.0,-100.00,SSW,196,5.0,16.0,42,0.00,,,0.22,662.000000,,2013-05-12 17:02:00,
2013-05-12 13:12:00,52.0,30.0,-100.00,SSW,196,5.0,16.0,42,0.00,,,0.22,662.000000,,2013-05-12 17:12:00,
2013-05-12 13:42:00,54.0,28.0,-100.00,SW,220,7.0,18.0,37,0.00,,,0.22,718.000000,,2013-05-12 17:42:00,
2013-05-12 13:53:00,54.0,28.0,-100.00,SW,220,7.0,18.0,37,0.00,,,0.22,718.000000,,2013-05-12 17:53:00,
2013-05-12 14:01:00,54.0,28.0,-100.00,SW,220,7.0,18.0,37,0.00,,,0.22,718.000000,,2013-05-12 18:01:00,
2013-05-12 14:12:00,54.0,28.0,-100.00,SW,220,7.0,18.0,37,0.00,,,0.22,718.000000,,2013-05-12 18:12:00,
2013-05-12 14:42:00,54.0,29.0,-100.00,WSW,238,5.0,19.0,38,0.00,,,0.22,565.000000,,2013-05-12 18:42:00,
2013-05-12 14:52:00,54.0,29.0,-100.00,WSW,238,5.0,19.0,38,0.00,,,0.22,565.000000,,2013-05-12 18:52:00,
2013-05-12 15:01:00,54.0,29.0,-100.00,WSW,238,5.0,19.0,38,0.00,,,0.22,565.000000,,2013-05-12 19:01:00,
2013-05-12 15:11:00,54.0,29.0,-100.00,WSW,238,5.0,19.0,38,0.00,,,0.22,565.000000,,2013-05-12 19:11:00,
2013-05-12 15:42:00,56.0,28.0,-100.00,WSW,248,7.0,18.0,34,0.00,,,0.22,531.000000,,2013-05-12 19:42:00,
2013-05-12 15:52:00,56.0,28.0,-100.00,WSW,248,7.0,18.0,34,0.00,,,0.22,531.000000,,2013-05-12 19:52:00,
2013-05-12 16:02:00,56.0,28.0,-100.00,WSW,248,7.0,18.0,34,0.00,,,0.22,531.000000,,2013-05-12 20:02:00,
2013-05-12 16:11:00,56.0,28.0,-100.00,WSW,248,7.0,18.0,34,0.00,,,0.22,531.000000,,2013-05-12 20:11:00,
2013-05-12 16:42:00,58.0,31.0,-100.00,WSW,241,5.0,17.0,35,0.00,,,0.08,516.000000,,2013-05-12 20:42:00,
2013-05-12 16:52:00,58.0,31.0,-100.00,WSW,241,5.0,17.0,35,0.00,,,0.08,516.000000,,2013-05-12 20:52:00,
2013-05-12 17:01:00,58.0,31.0,-100.00,WSW,241,5.0,17.0,35,0.00,,,0.08,516.000000,,2013-05-12 21:01:00,
2013-05-12 17:11:00,58.0,31.0,-100.00,WSW,241,5.0,17.0,35,0.00,,,0.08,516.000000,,2013-05-12 21:11:00,
2013-05-12 17:33:00,58.0,30.0,-100.00,SSW,193,6.0,14.0,34,0.00,,,0.07,433.000000,,2013-05-12 21:33:00,
2013-05-12 17:42:00,58.0,30.0,-100.00,SSW,193,6.0,14.0,34,0.00,,,0.07,433.000000,,2013-05-12 21:42:00,
2013-05-12 17:53:00,58.0,30.0,-100.00,SSW,193,6.0,14.0,34,0.00,,,0.07,433.000000,,2013-05-12 21:53:00,
2013-05-12 18:02:00,58.0,30.0,-100.00,SSW,193,6.0,14.0,34,0.00,,,0.07,433.000000,,2013-05-12 22:02:00,
2013-05-12 18:12:00,58.0,30.0,-100.00,SSW,193,6.0,14.0,34,0.00,,,0.07,433.000000,,2013-05-12 22:12:00,
2013-05-12 18:42:00,57.0,27.0,-100.00,SW,223,5.0,15.0,32,0.00,,,0.05,399.000000,,2013-05-12 22:42:00,
2013-05-12 18:52:00,57.0,27.0,-100.00,SW,223,5.0,15.0,32,0.00,,,0.05,399.000000,,2013-05-12 22:52:00,
2013-05-12 19:02:00,57.0,27.0,-100.00,SW,223,5.0,15.0,32,0.00,,,0.05,399.000000,,2013-05-12 23:02:00,
2013-05-12 19:12:00,57.0,27.0,-100.00,SW,223,5.0,15.0,32,0.00,,,0.05,399.000000,,2013-05-12 23:12:00,
2013-05-12 19:42:00,56.0,33.0,-100.00,SW,230,4.0,11.0,42,0.00,,,0.03,183.000000,,2013-05-12 23:42:00,
2013-05-12 19:52:00,56.0,33.0,-100.00,SW,230,4.0,11.0,42,0.00,,,0.03,183.000000,,2013-05-12 23:52:00,
2013-05-12 20:01:00,56.0,33.0,-100.00,SW,230,4.0,11.0,42,0.00,,,0.03,183.000000,,2013-05-13 00:01:00,
2013-05-12 20:11:00,56.0,33.0,-100.00,SW,230,4.0,11.0,42,0.00,,,0.03,183.000000,,2013-05-13 00:11:00,
2013-05-12 20:42:00,50.0,34.0,-100.00,NE,51,1.0,10.0,54,0.00,,,0.03,37.000000,,2013-05-13 00:42:00,
2013-05-12 20:52:00,50.0,34.0,-100.00,NE,51,1.0,10.0,54,0.00,,,0.03,37.000000,,2013-05-13 00:52:00,
2013-05-12 21:01:00,50.0,34.0,-100.00,NE,51,1.0,10.0,54,0.00,,,0.03,37.000000,,2013-05-13 01:01:00,
2013-05-12 21:11:00,50.0,34.0,-100.00,NE,51,1.0,10.0,54,0.00,,,0.03,37.000000,,2013-05-13 01:11:00,
2013-05-12 21:42:00,45.0,36.0,-100.00,South,175,3.0,4.0,70,0.00,,,0.03,1.000000,,2013-05-13 01:42:00,
2013-05-12 21:52:00,45.0,36.0,-100.00,South,175,3.0,4.0,70,0.00,,,0.03,1.000000,,2013-05-13 01:52:00,
2013-05-12 22:02:00,45.0,36.0,-100.00,South,175,3.0,4.0,70,0.00,,,0.03,1.000000,,2013-05-13 02:02:00,
2013-05-12 22:11:00,45.0,36.0,-100.00,South,175,3.0,4.0,70,0.00,,,0.03,1.000000,,2013-05-13 02:11:00,
2013-05-12 22:32:00,42.0,37.0,-100.00,SSE,165,0.0,3.0,81,0.00,,,0.02,0.000000,,2013-05-13 02:32:00,
2013-05-12 22:42:00,42.0,37.0,-100.00,SSE,165,0.0,3.0,81,0.00,,,0.02,0.000000,,2013-05-13 02:42:00,
2013-05-12 22:52:00,42.0,37.0,-100.00,SSE,165,0.0,3.0,81,0.00,,,0.02,0.000000,,2013-05-13 02:52:00,
2013-05-12 23:02:00,42.0,37.0,-100.00,SSE,165,0.0,3.0,81,0.00,,,0.02,0.000000,,2013-05-13 03:02:00,
2013-05-12 23:11:00,42.0,37.0,-100.00,SSE,165,0.0,3.0,81,0.00,,,0.02,0.000000,,2013-05-13 03:11:00,
2013-05-12 23:42:00,39.0,35.0,-100.00,SW,236,0.0,0.0,87,0.00,,,0.02,0.000000,,2013-05-13 03:42:00,
2013-05-12 23:53:00,39.0,35.0,-100.00,SW,236,0.0,0.0,87,0.00,,,0.02,0.000000,,2013-05-13 03:53:00,